Etusivu
METAR-TAF:

METAR-TAF

Lentoasemat :

Perry Stokes Airport

Trinidad, Colorado, Yhdysvallat

Leveyspiiri: 37-16N, Pituuspiiri: 104-26W, korkeus merenpinnasta: 1756 m

Tämänhetkinen sää

Tämä raportti tehtiin 57 minuuttia sitten, kello 10.54 UTC
Tuuli 7 kn lännestä/luoteesta, vaihdellen lännen ja luoteen välillä
Lämpötila 2°C
Kosteus 69%
Ilmanpaine 1016 hPa
Näkyvyys: 16.1 km
selkeää

METAR: KTAD 181054Z AUTO 29007KT 260V320 10SM CLR 02/M03 A3000 RMK AO2 SLP129 T00221033

Aika: 04:51 (11:51 UTC)


TAF: puuttuu

Säähavainnot ja -ennusteet yli 4000 lentoasemalta (METAR- ja TAF-raportit).

Käytössä olevat sääasemat on merkitty karttaan keltaisilla ja punaisilla pisteillä.

Aseta hiiri pisteen päälle nähdäksesi sääaseman nimen.

Klikkaa sitten nähdäksesi säähavainnot ja -ennusteet.

Kartan vaihtaminen: klikkaa mustalla rastilla varustettuja vihreitä pisteitä, niin voit zoomata sisään; viivalla varustettua vihreää pistettä, niin voit zoomata ulos tai vihreitä nuolia, niin pääset viereisille kartoille.


METAR-TAF: